Portada
METAR-TAF:

METAR-TAF

Aeroports :

Paraguaná, Veneçuela

latitud: 11-47N, longitud: 070-09W, altitud: 23 m

METAR: manca

Hora: 11:30 (15:30 UTC)

Pronòstic

L'informe es va fer fa 5 hores i 30 minuts, a les 10:00 UTC
Pronòstic vàlid del 26 a les 12 UTC al 27 a les 12 UTC
Vent 4 kt del Est
Visibilitat 10 km o més
Escasses núvols a una alçada de 1300 ft
Evolucionant progressivament
l' 26 a les 12 UTC al 26 a les 16 UTC
Vent 12 kt del Est
Visibilitat 10 km o més
Núvols disperses a una alçada de 1300 ft

TAF: SVJC 261000Z 2612/2712 09004KT 9999 FEW013 TX34/2618Z TN23/2707Z BECMG 2612/2616 09012KT 9999 SCT013

Observacions i pronòstics meteorològics de més de 4000 aeroports (METAR i TAF).

Les estacions disponibles són els punts grocs i vermells al mapa.

Posi el ratolí al punt desitjat per veure el nom de l'estació.

Feu clic per veure les observacions i els pronòstics meteorològics.

Per canviar el mapa: feu clic els botons verds amb una creu de color negre per apropar; al botó verd amb un guió per allunyar la imatge; o en les fletxes verdes per a mapes adjacents.


METAR-TAF: